createdAt,value
2018-09-26T00:00:07.829Z,100507.00
2018-09-26T00:02:40.872Z,100505.00
2018-09-26T00:05:09.878Z,100507.00
2018-09-26T00:07:38.960Z,100503.00
2018-09-26T00:10:08.001Z,100499.00
2018-09-26T00:12:37.302Z,100510.00
2018-09-26T00:15:06.731Z,100520.00
2018-09-26T00:17:35.810Z,100512.00
2018-09-26T00:20:05.534Z,100493.00
2018-09-26T00:22:34.605Z,100494.00
2018-09-26T00:25:04.025Z,100483.00
2018-09-26T00:27:33.092Z,100479.00
2018-09-26T00:30:02.108Z,100474.00
2018-09-26T00:32:31.164Z,100470.00
2018-09-26T00:35:00.496Z,100469.00
2018-09-26T00:37:29.630Z,100465.00
2018-09-26T00:39:58.680Z,100455.00
2018-09-26T00:42:27.868Z,100455.00
2018-09-26T00:44:56.892Z,100457.00
2018-09-26T00:47:25.976Z,100454.00
2018-09-26T00:49:55.368Z,100445.00
2018-09-26T00:52:24.440Z,100443.00
2018-09-26T00:54:53.552Z,100445.00
2018-09-26T00:57:22.828Z,100450.00
2018-09-26T00:59:51.864Z,100443.00
2018-09-26T01:02:20.952Z,100443.00
2018-09-26T01:04:50.513Z,100437.00
2018-09-26T01:07:19.560Z,100435.00
2018-09-26T01:09:48.640Z,100440.00
2018-09-26T01:12:17.716Z,100441.00
2018-09-26T01:14:46.788Z,100442.00
2018-09-26T01:17:16.461Z,100429.00
2018-09-26T01:19:45.560Z,100432.00
2018-09-26T01:22:14.691Z,100418.00
2018-09-26T01:24:43.724Z,100414.00
2018-09-26T01:27:13.608Z,100423.00
2018-09-26T01:29:42.688Z,100420.00
2018-09-26T01:32:11.740Z,100395.00
2018-09-26T01:34:41.236Z,100416.00
2018-09-26T01:37:10.424Z,100420.00
2018-09-26T01:39:39.523Z,100420.00
2018-09-26T01:42:08.600Z,100428.00
2018-09-26T01:44:37.640Z,100430.00
2018-09-26T01:47:06.912Z,100428.00
2018-09-26T01:49:36.284Z,100423.00
2018-09-26T01:52:05.360Z,100423.00
2018-09-26T01:54:34.717Z,100423.00
2018-09-26T01:57:03.784Z,100432.00
2018-09-26T01:59:32.860Z,100427.00
2018-09-26T02:02:02.388Z,100420.00
2018-09-26T02:04:31.488Z,100413.00
2018-09-26T02:07:00.600Z,100415.00
2018-09-26T02:09:29.660Z,100415.00
2018-09-26T02:11:58.768Z,100415.00
2018-09-26T02:14:27.779Z,100424.00
2018-09-26T02:16:56.844Z,100429.00
2018-09-26T02:19:26.759Z,100435.00
2018-09-26T02:21:55.892Z,100439.00
2018-09-26T02:24:24.948Z,100449.00
2018-09-26T02:26:54.305Z,100460.00
2018-09-26T02:29:23.744Z,100452.00
2018-09-26T02:31:52.824Z,100449.00
2018-09-26T02:34:22.052Z,100445.00
2018-09-26T02:36:51.136Z,100437.00
2018-09-26T02:39:20.321Z,100433.00
2018-09-26T02:41:50.089Z,100428.00
2018-09-26T02:44:19.161Z,100433.00
2018-09-26T02:46:48.281Z,100432.00
2018-09-26T02:49:17.376Z,100431.00
2018-09-26T02:51:46.435Z,100435.00
2018-09-26T02:54:15.484Z,100426.00
2018-09-26T02:56:45.124Z,100420.00
2018-09-26T02:59:14.221Z,100415.00
2018-09-26T03:01:43.329Z,100412.00
2018-09-26T03:04:12.432Z,100416.00
2018-09-26T03:06:41.705Z,100402.00
2018-09-26T03:09:11.318Z,100397.00
2018-09-26T03:11:40.973Z,100396.00
2018-09-26T03:14:10.005Z,100395.00
2018-09-26T03:16:39.056Z,100394.00
2018-09-26T03:19:08.669Z,100394.00
2018-09-26T03:21:37.765Z,100402.00
2018-09-26T03:24:06.856Z,100407.00
2018-09-26T03:26:36.469Z,100406.00
2018-09-26T03:29:05.505Z,100407.00
2018-09-26T03:31:34.940Z,100390.00
2018-09-26T03:34:04.056Z,100385.00
2018-09-26T03:36:33.104Z,100377.00
2018-09-26T03:39:02.221Z,100374.00
2018-09-26T03:41:32.167Z,100385.00
2018-09-26T03:44:01.265Z,100382.00
2018-09-26T03:46:30.364Z,100381.00
2018-09-26T03:48:59.961Z,100380.00
2018-09-26T03:51:29.002Z,100382.00
2018-09-26T03:53:58.153Z,100378.00
2018-09-26T03:56:27.256Z,100371.00
2018-09-26T03:58:56.308Z,100371.00
2018-09-26T04:01:25.468Z,100369.00
2018-09-26T04:03:54.797Z,100370.00
2018-09-26T04:06:23.832Z,100371.00
2018-09-26T04:08:52.929Z,100370.00
2018-09-26T04:11:22.028Z,100374.00
2018-09-26T04:13:52.043Z,100382.00
2018-09-26T04:16:21.138Z,100384.00
2018-09-26T04:18:50.339Z,100397.00
2018-09-26T04:21:19.433Z,100396.00
2018-09-26T04:23:48.526Z,100399.00
2018-09-26T04:26:17.907Z,100394.00
2018-09-26T04:28:46.921Z,100400.00
2018-09-26T04:31:15.997Z,100394.00
2018-09-26T04:33:45.451Z,100394.00
2018-09-26T04:36:14.340Z,100398.00
2018-09-26T04:38:43.548Z,100388.00
2018-09-26T04:41:13.184Z,100392.00
2018-09-26T04:43:42.220Z,100394.00
2018-09-26T04:46:11.304Z,100385.00
2018-09-26T04:48:41.732Z,100384.00
2018-09-26T04:51:10.806Z,100387.00
2018-09-26T04:53:39.877Z,100388.00
2018-09-26T04:56:09.020Z,100390.00
2018-09-26T04:58:38.071Z,100384.00
2018-09-26T05:01:07.269Z,100381.00
2018-09-26T05:03:36.412Z,100382.00
2018-09-26T05:06:05.500Z,100374.00
2018-09-26T05:08:34.596Z,100375.00
2018-09-26T05:11:04.821Z,100380.00
2018-09-26T05:13:33.868Z,100379.00
2018-09-26T05:16:02.909Z,100387.00
2018-09-26T05:18:32.152Z,100400.00
2018-09-26T05:21:01.248Z,100406.00
2018-09-26T05:23:30.320Z,100408.00
2018-09-26T05:26:00.788Z,100414.00
2018-09-26T05:28:29.841Z,100415.00
2018-09-26T05:30:59.732Z,100419.00
2018-09-26T05:33:30.328Z,100424.00
2018-09-26T05:35:59.460Z,100416.00
2018-09-26T05:38:31.218Z,100417.00
2018-09-26T05:41:14.048Z,100422.00
2018-09-26T05:43:44.057Z,100424.00
2018-09-26T05:46:13.452Z,100418.00
2018-09-26T05:48:42.719Z,100417.00
2018-09-26T05:51:12.021Z,100406.00
2018-09-26T05:53:48.419Z,100396.00
2018-09-26T05:56:22.408Z,100403.00
2018-09-26T05:58:53.036Z,100408.00
2018-09-26T06:01:22.644Z,100417.00
2018-09-26T06:03:51.793Z,100419.00
2018-09-26T06:06:21.988Z,100410.00
2018-09-26T06:08:53.232Z,100407.00
2018-09-26T06:11:23.077Z,100405.00
2018-09-26T06:13:52.939Z,100407.00
2018-09-26T06:16:22.260Z,100412.00
2018-09-26T06:18:52.322Z,100413.00
2018-09-26T06:21:21.540Z,100418.00
2018-09-26T06:23:50.744Z,100414.00
2018-09-26T06:26:19.809Z,100415.00
2018-09-26T06:28:48.876Z,100415.00
2018-09-26T06:31:18.012Z,100421.00
2018-09-26T06:33:47.119Z,100423.00
2018-09-26T06:36:16.215Z,100415.00
2018-09-26T06:38:45.349Z,100415.00
2018-09-26T06:41:14.944Z,100408.00
2018-09-26T06:43:44.362Z,100402.00
2018-09-26T06:46:13.615Z,100400.00
2018-09-26T06:48:42.852Z,100399.00
2018-09-26T06:51:12.111Z,100391.00
2018-09-26T06:53:41.148Z,100389.00
2018-09-26T06:56:10.813Z,100396.00
2018-09-26T06:58:40.328Z,100401.00
2018-09-26T07:01:09.504Z,100387.00
2018-09-26T07:03:38.581Z,100388.00
2018-09-26T07:06:07.716Z,100386.00
2018-09-26T07:08:36.956Z,100386.00
2018-09-26T07:11:06.305Z,100388.00
2018-09-26T07:13:35.653Z,100386.00
2018-09-26T07:16:04.911Z,100387.00
2018-09-26T07:18:34.104Z,100389.00
2018-09-26T07:21:03.616Z,100396.00
2018-09-26T07:23:32.716Z,100395.00
2018-09-26T07:26:01.804Z,100396.00
2018-09-26T07:28:30.908Z,100399.00
2018-09-26T07:31:00.004Z,100394.00
2018-09-26T07:33:29.182Z,100390.00
2018-09-26T07:35:58.532Z,100394.00
2018-09-26T07:38:27.654Z,100391.00
2018-09-26T07:40:56.829Z,100391.00
2018-09-26T07:43:26.208Z,100387.00
2018-09-26T07:45:55.405Z,100383.00
2018-09-26T07:48:24.384Z,100394.00
2018-09-26T07:50:53.532Z,100383.00
2018-09-26T07:53:22.766Z,100376.00
2018-09-26T07:55:51.969Z,100370.00
2018-09-26T07:58:21.032Z,100372.00
2018-09-26T08:00:50.564Z,100358.00
2018-09-26T08:03:19.757Z,100358.00
2018-09-26T08:05:49.050Z,100367.00
2018-09-26T08:08:18.145Z,100355.00
2018-09-26T08:10:47.208Z,100356.00
2018-09-26T08:13:16.443Z,100347.00
2018-09-26T08:15:45.585Z,100349.00
2018-09-26T08:18:15.258Z,100334.00
2018-09-26T08:20:44.481Z,100371.00
2018-09-26T08:23:13.732Z,100374.00
2018-09-26T08:25:42.852Z,100381.00
2018-09-26T08:28:12.043Z,100362.00
2018-09-26T08:30:41.080Z,100359.00
2018-09-26T08:33:10.437Z,100348.00
2018-09-26T08:35:39.543Z,100360.00
2018-09-26T08:38:08.625Z,100359.00
2018-09-26T08:40:37.721Z,100350.00
2018-09-26T08:43:07.479Z,100358.00
2018-09-26T08:45:36.736Z,100357.00
2018-09-26T08:48:05.902Z,100359.00
2018-09-26T08:50:35.136Z,100356.00
2018-09-26T08:53:04.244Z,100347.00
2018-09-26T08:55:33.396Z,100358.00
2018-09-26T08:58:02.628Z,100372.00
2018-09-26T09:00:33.008Z,100370.00
2018-09-26T09:03:02.165Z,100381.00
2018-09-26T09:05:32.384Z,100379.00
2018-09-26T09:08:01.981Z,100360.00
2018-09-26T09:10:31.124Z,100361.00
2018-09-26T09:13:00.936Z,100358.00
2018-09-26T09:15:30.074Z,100363.00
2018-09-26T09:17:59.193Z,100366.00
2018-09-26T09:20:28.330Z,100361.00
2018-09-26T09:22:57.436Z,100361.00
2018-09-26T09:25:26.674Z,100350.00
2018-09-26T09:27:56.132Z,100347.00
2018-09-26T09:30:25.476Z,100343.00
2018-09-26T09:32:54.944Z,100332.00
2018-09-26T09:35:24.000Z,100327.00
2018-09-26T09:37:53.097Z,100337.00
2018-09-26T09:40:22.189Z,100356.00
2018-09-26T09:42:51.352Z,100353.00
2018-09-26T09:45:20.380Z,100350.00
2018-09-26T09:47:49.511Z,100346.00
2018-09-26T09:50:18.715Z,100351.00
2018-09-26T09:52:47.816Z,100342.00
2018-09-26T09:55:16.945Z,100343.00
2018-09-26T09:57:46.172Z,100340.00
2018-09-26T10:00:15.283Z,100335.00
2018-09-26T10:02:45.463Z,100326.00
2018-09-26T10:05:14.498Z,100322.00
2018-09-26T10:07:43.556Z,100333.00
2018-09-26T10:10:12.893Z,100321.00
2018-09-26T10:12:42.991Z,100327.00
2018-09-26T10:15:12.242Z,100320.00
2018-09-26T10:17:41.400Z,100327.00
2018-09-26T10:20:10.444Z,100328.00
2018-09-26T10:22:39.556Z,100338.00
2018-09-26T10:25:09.058Z,100343.00
2018-09-26T10:27:38.044Z,100343.00
2018-09-26T10:30:07.657Z,100315.00
2018-09-26T10:32:37.085Z,100299.00
2018-09-26T10:35:06.391Z,100296.00
2018-09-26T10:37:35.476Z,100281.00
2018-09-26T10:40:05.088Z,100289.00
2018-09-26T10:42:34.329Z,100305.00
2018-09-26T10:45:03.556Z,100294.00
2018-09-26T10:47:32.668Z,100279.00
2018-09-26T10:50:01.905Z,100288.00
2018-09-26T10:52:31.208Z,100271.00
2018-09-26T10:55:00.288Z,100268.00
2018-09-26T10:57:29.721Z,100273.00
2018-09-26T10:59:58.947Z,100262.00
2018-09-26T11:02:28.188Z,100261.00
2018-09-26T11:04:57.210Z,100255.00
2018-09-26T11:07:26.271Z,100256.00
2018-09-26T11:09:55.784Z,100252.00
2018-09-26T11:12:24.916Z,100258.00
2018-09-26T11:14:54.152Z,100262.00
2018-09-26T11:17:23.488Z,100258.00
2018-09-26T11:19:52.556Z,100257.00
2018-09-26T11:22:21.910Z,100249.00
2018-09-26T11:24:50.939Z,100247.00
2018-09-26T11:27:20.054Z,100243.00
2018-09-26T11:29:49.214Z,100238.00
2018-09-26T11:32:18.340Z,100230.00
2018-09-26T11:34:47.481Z,100237.00
2018-09-26T11:37:16.527Z,100239.00
2018-09-26T11:39:45.660Z,100238.00
2018-09-26T11:42:14.796Z,100233.00
2018-09-26T11:44:44.010Z,100235.00
2018-09-26T11:47:13.069Z,100239.00
2018-09-26T11:49:42.152Z,100234.00
2018-09-26T11:52:11.370Z,100235.00
2018-09-26T11:54:40.433Z,100235.00
2018-09-26T11:57:09.490Z,100231.00
2018-09-26T11:59:38.608Z,100233.00
2018-09-26T12:02:08.654Z,100219.00
2018-09-26T12:04:38.416Z,100219.00
2018-09-26T12:07:07.557Z,100217.00
2018-09-26T12:09:36.714Z,100218.00
2018-09-26T12:12:05.859Z,100210.00
2018-09-26T12:14:34.960Z,100204.00
2018-09-26T12:17:04.016Z,100193.00
2018-09-26T12:19:33.124Z,100190.00
2018-09-26T12:22:02.371Z,100177.00
2018-09-26T12:24:31.473Z,100189.00
2018-09-26T12:27:00.581Z,100197.00
2018-09-26T12:29:29.672Z,100194.00
2018-09-26T12:31:58.832Z,100202.00
2018-09-26T12:34:27.915Z,100201.00
2018-09-26T12:36:57.053Z,100190.00
2018-09-26T12:39:26.148Z,100188.00
2018-09-26T12:41:55.245Z,100191.00
2018-09-26T12:44:24.332Z,100192.00
2018-09-26T12:46:53.488Z,100195.00
2018-09-26T12:49:23.395Z,100193.00
2018-09-26T12:51:52.489Z,100188.00
2018-09-26T12:54:21.566Z,100186.00
2018-09-26T12:56:50.693Z,100188.00
2018-09-26T12:59:19.928Z,100179.00
2018-09-26T13:01:49.280Z,100180.00
2018-09-26T13:04:18.376Z,100182.00
2018-09-26T13:06:47.416Z,100177.00
2018-09-26T13:09:16.728Z,100169.00
2018-09-26T13:11:45.845Z,100169.00
2018-09-26T13:14:15.371Z,100179.00
2018-09-26T13:16:44.434Z,100177.00
2018-09-26T13:19:13.509Z,100168.00
2018-09-26T13:21:42.588Z,100167.00
2018-09-26T13:24:11.711Z,100160.00
2018-09-26T13:26:40.787Z,100156.00
2018-09-26T13:29:10.049Z,100161.00
2018-09-26T13:31:39.121Z,100155.00
2018-09-26T13:34:08.304Z,100153.00
2018-09-26T13:36:37.340Z,100146.00
2018-09-26T13:39:08.150Z,100141.00
2018-09-26T13:41:37.220Z,100151.00
2018-09-26T13:44:06.481Z,100148.00
2018-09-26T13:46:37.166Z,100145.00
2018-09-26T13:49:06.315Z,100143.00
2018-09-26T13:51:35.389Z,100144.00
2018-09-26T13:54:04.545Z,100140.00
2018-09-26T13:56:33.560Z,100153.00
2018-09-26T13:59:02.674Z,100149.00
2018-09-26T14:01:31.789Z,100142.00
2018-09-26T14:04:00.869Z,100146.00
2018-09-26T14:06:30.156Z,100146.00
2018-09-26T14:08:59.225Z,100145.00
2018-09-26T14:11:28.281Z,100145.00
2018-09-26T14:13:57.312Z,100149.00
2018-09-26T14:16:26.420Z,100145.00
2018-09-26T14:18:55.564Z,100149.00
2018-09-26T14:21:24.612Z,100147.00
2018-09-26T14:23:53.734Z,100148.00
2018-09-26T14:26:22.953Z,100148.00
2018-09-26T14:28:51.905Z,100148.00
2018-09-26T14:31:21.139Z,100146.00
2018-09-26T14:33:50.422Z,100141.00
2018-09-26T14:36:19.376Z,100144.00
2018-09-26T14:38:48.537Z,100143.00
2018-09-26T14:41:17.719Z,100134.00
2018-09-26T14:43:46.728Z,100126.00
2018-09-26T14:46:16.168Z,100121.00
2018-09-26T14:48:45.372Z,100125.00
2018-09-26T14:51:14.472Z,100133.00
2018-09-26T14:53:43.577Z,100135.00
2018-09-26T14:56:13.579Z,100133.00
2018-09-26T14:58:42.894Z,100127.00
2018-09-26T15:01:11.985Z,100127.00
2018-09-26T15:03:41.077Z,100125.00
2018-09-26T15:06:10.204Z,100120.00
2018-09-26T15:08:39.446Z,100124.00
2018-09-26T15:11:08.568Z,100127.00
2018-09-26T15:13:37.732Z,100123.00
2018-09-26T15:16:07.311Z,100118.00
2018-09-26T15:18:36.489Z,100117.00
2018-09-26T15:21:05.548Z,100118.00
2018-09-26T15:23:34.764Z,100118.00
2018-09-26T15:26:03.856Z,100118.00
2018-09-26T15:28:32.977Z,100116.00
2018-09-26T15:31:02.036Z,100116.00
2018-09-26T15:33:31.146Z,100118.00
2018-09-26T15:36:00.179Z,100119.00
2018-09-26T15:38:30.036Z,100118.00
2018-09-26T15:40:59.331Z,100120.00
2018-09-26T15:43:28.464Z,100117.00
2018-09-26T15:45:57.585Z,100120.00
2018-09-26T15:48:26.676Z,100116.00
2018-09-26T15:50:55.721Z,100120.00
2018-09-26T15:53:24.931Z,100118.00
2018-09-26T15:55:54.049Z,100114.00
2018-09-26T15:58:23.149Z,100120.00
2018-09-26T16:00:52.229Z,100121.00
2018-09-26T16:03:21.380Z,100120.00
2018-09-26T16:05:50.432Z,100117.00
2018-09-26T16:08:19.546Z,100124.00
2018-09-26T16:10:48.928Z,100122.00
2018-09-26T16:13:17.977Z,100119.00
2018-09-26T16:15:47.116Z,100119.00
2018-09-26T16:18:16.209Z,100125.00
2018-09-26T16:20:45.289Z,100126.00
2018-09-26T16:23:14.453Z,100127.00
2018-09-26T16:25:43.568Z,100129.00
2018-09-26T16:28:12.666Z,100130.00
2018-09-26T16:30:41.719Z,100130.00
2018-09-26T16:33:10.832Z,100129.00
2018-09-26T16:35:40.096Z,100136.00
2018-09-26T16:38:09.717Z,100132.00
2018-09-26T16:40:38.941Z,100139.00
2018-09-26T16:43:08.070Z,100134.00
2018-09-26T16:45:37.113Z,100134.00
2018-09-26T16:48:06.284Z,100135.00
2018-09-26T16:50:35.497Z,100133.00
2018-09-26T16:53:04.577Z,100138.00
2018-09-26T16:55:33.624Z,100137.00
2018-09-26T16:58:02.768Z,100134.00
2018-09-26T17:00:31.861Z,100133.00
2018-09-26T17:03:00.908Z,100136.00
2018-09-26T17:05:30.016Z,100139.00
2018-09-26T17:07:59.090Z,100132.00
2018-09-26T17:10:28.161Z,100137.00
2018-09-26T17:12:57.597Z,100142.00
2018-09-26T17:15:27.320Z,100139.00
2018-09-26T17:17:56.608Z,100148.00
2018-09-26T17:20:26.194Z,100152.00
2018-09-26T17:22:55.448Z,100162.00
2018-09-26T17:25:24.609Z,100166.00
2018-09-26T17:27:53.708Z,100161.00
2018-09-26T17:30:22.818Z,100162.00
2018-09-26T17:32:52.191Z,100167.00
2018-09-26T17:35:21.219Z,100167.00
2018-09-26T17:37:50.375Z,100165.00
2018-09-26T17:40:19.495Z,100169.00
2018-09-26T17:42:48.520Z,100164.00
2018-09-26T17:45:17.605Z,100168.00
2018-09-26T17:47:46.701Z,100167.00
2018-09-26T17:50:15.768Z,100167.00
2018-09-26T17:52:44.832Z,100171.00
2018-09-26T17:55:14.005Z,100174.00
2018-09-26T17:57:43.104Z,100174.00
2018-09-26T18:00:12.122Z,100185.00
2018-09-26T18:02:41.184Z,100189.00
2018-09-26T18:05:10.693Z,100196.00
2018-09-26T18:07:39.790Z,100195.00
2018-09-26T18:10:09.248Z,100194.00
2018-09-26T18:12:38.368Z,100197.00
2018-09-26T18:15:07.693Z,100196.00
2018-09-26T18:17:36.748Z,100192.00
2018-09-26T18:20:05.909Z,100190.00
2018-09-26T18:22:35.024Z,100195.00
2018-09-26T18:25:04.376Z,100188.00
2018-09-26T18:27:33.539Z,100192.00
2018-09-26T18:30:02.788Z,100190.00
2018-09-26T18:32:31.897Z,100195.00
2018-09-26T18:35:00.956Z,100192.00
2018-09-26T18:37:30.163Z,100193.00
2018-09-26T18:39:59.204Z,100192.00
2018-09-26T18:42:28.481Z,100190.00
2018-09-26T18:44:57.590Z,100191.00
2018-09-26T18:47:26.648Z,100188.00
2018-09-26T18:49:55.786Z,100189.00
2018-09-26T18:52:24.940Z,100189.00
2018-09-26T18:54:54.000Z,100195.00
2018-09-26T18:57:23.098Z,100195.00
2018-09-26T18:59:52.168Z,100197.00
2018-09-26T19:02:21.217Z,100202.00
2018-09-26T19:04:50.373Z,100205.00
2018-09-26T19:07:19.408Z,100202.00
2018-09-26T19:09:48.460Z,100204.00
2018-09-26T19:12:17.625Z,100211.00
2018-09-26T19:14:46.585Z,100215.00
2018-09-26T19:17:15.605Z,100214.00
2018-09-26T19:19:44.676Z,100220.00
2018-09-26T19:22:13.856Z,100223.00
2018-09-26T19:24:42.896Z,100224.00
2018-09-26T19:27:12.061Z,100224.00
2018-09-26T19:29:41.064Z,100228.00
2018-09-26T19:32:10.212Z,100226.00
2018-09-26T19:34:39.269Z,100225.00
2018-09-26T19:37:08.290Z,100225.00
2018-09-26T19:39:37.420Z,100229.00
2018-09-26T19:42:06.696Z,100230.00
2018-09-26T19:44:35.732Z,100224.00
2018-09-26T19:47:04.809Z,100231.00
2018-09-26T19:49:33.856Z,100237.00
2018-09-26T19:52:02.975Z,100234.00
2018-09-26T19:54:32.021Z,100231.00
2018-09-26T19:57:01.064Z,100229.00
2018-09-26T19:59:30.116Z,100226.00
2018-09-26T20:02:00.068Z,100227.00
2018-09-26T20:04:29.107Z,100228.00
2018-09-26T20:06:58.836Z,100229.00
2018-09-26T20:09:27.896Z,100233.00
2018-09-26T20:11:56.989Z,100232.00
2018-09-26T20:14:26.109Z,100239.00
2018-09-26T20:16:55.225Z,100234.00
2018-09-26T20:19:24.264Z,100241.00
2018-09-26T20:21:53.424Z,100248.00
2018-09-26T20:24:22.492Z,100250.00
2018-09-26T20:26:51.731Z,100241.00
2018-09-26T20:29:20.710Z,100241.00
2018-09-26T20:31:49.699Z,100251.00
2018-09-26T20:34:18.745Z,100246.00
2018-09-26T20:36:47.869Z,100240.00
2018-09-26T20:39:16.969Z,100242.00
2018-09-26T20:41:46.341Z,100239.00
2018-09-26T20:44:15.380Z,100238.00
2018-09-26T20:46:44.536Z,100241.00
2018-09-26T20:49:13.627Z,100242.00
2018-09-26T20:51:42.726Z,100239.00
2018-09-26T20:54:11.921Z,100245.00
2018-09-26T20:56:41.011Z,100248.00
2018-09-26T20:59:10.096Z,100247.00
2018-09-26T21:01:39.208Z,100255.00
2018-09-26T21:04:08.325Z,100256.00
2018-09-26T21:06:37.358Z,100251.00
2018-09-26T21:09:09.077Z,100253.00
2018-09-26T21:11:38.138Z,100240.00
2018-09-26T21:14:07.792Z,100250.00
2018-09-26T21:16:37.700Z,100244.00
2018-09-26T21:19:06.780Z,100248.00
2018-09-26T21:21:36.033Z,100244.00
2018-09-26T21:24:05.112Z,100240.00
2018-09-26T21:26:34.381Z,100238.00
2018-09-26T21:29:03.392Z,100245.00
2018-09-26T21:31:32.512Z,100240.00
2018-09-26T21:34:01.576Z,100244.00
2018-09-26T21:36:30.661Z,100239.00
2018-09-26T21:38:59.869Z,100237.00
2018-09-26T21:41:28.928Z,100240.00
2018-09-26T21:43:58.016Z,100239.00
2018-09-26T21:46:27.120Z,100237.00
2018-09-26T21:48:56.197Z,100241.00
2018-09-26T21:51:25.248Z,100234.00
2018-09-26T21:53:54.320Z,100233.00
2018-09-26T21:56:23.382Z,100234.00
2018-09-26T21:58:52.441Z,100233.00
2018-09-26T22:01:21.487Z,100226.00
2018-09-26T22:03:50.548Z,100225.00
2018-09-26T22:06:19.704Z,100226.00
2018-09-26T22:08:48.760Z,100231.00
2018-09-26T22:11:17.892Z,100229.00
2018-09-26T22:13:46.984Z,100231.00
2018-09-26T22:16:16.252Z,100228.00
2018-09-26T22:18:45.344Z,100232.00
2018-09-26T22:21:14.456Z,100238.00
2018-09-26T22:23:43.536Z,100238.00
2018-09-26T22:26:13.293Z,100235.00
2018-09-26T22:28:42.396Z,100231.00
2018-09-26T22:31:11.539Z,100230.00
2018-09-26T22:33:40.544Z,100234.00
2018-09-26T22:36:10.608Z,100240.00
2018-09-26T22:38:39.708Z,100243.00
2018-09-26T22:41:08.776Z,100241.00
2018-09-26T22:43:37.839Z,100238.00
2018-09-26T22:46:07.472Z,100242.00
2018-09-26T22:48:36.539Z,100240.00
2018-09-26T22:51:05.560Z,100242.00
2018-09-26T22:53:34.665Z,100232.00
2018-09-26T22:56:03.724Z,100238.00
2018-09-26T22:58:32.832Z,100241.00
2018-09-26T23:01:01.941Z,100239.00
2018-09-26T23:03:31.008Z,100238.00
2018-09-26T23:06:00.097Z,100239.00
2018-09-26T23:08:29.236Z,100244.00
2018-09-26T23:10:58.536Z,100241.00
2018-09-26T23:13:27.508Z,100237.00
2018-09-26T23:15:56.588Z,100233.00
2018-09-26T23:18:25.684Z,100230.00
2018-09-26T23:20:54.733Z,100232.00
2018-09-26T23:23:23.979Z,100225.00
2018-09-26T23:25:53.032Z,100228.00
2018-09-26T23:28:22.080Z,100225.00
2018-09-26T23:30:51.141Z,100234.00
2018-09-26T23:33:20.256Z,100239.00
2018-09-26T23:35:49.340Z,100245.00
2018-09-26T23:38:18.421Z,100236.00
2018-09-26T23:40:47.492Z,100239.00
2018-09-26T23:43:16.608Z,100245.00
2018-09-26T23:45:45.643Z,100249.00
2018-09-26T23:48:14.944Z,100242.00
2018-09-26T23:50:43.976Z,100247.00
2018-09-26T23:53:13.020Z,100249.00
2018-09-26T23:55:42.115Z,100250.00
2018-09-26T23:58:11.159Z,100243.00
